Skip to Main Content
SEARCH:
Location Air RH Dwp Precip Type Wind Speed Wind Gust Direction Pavement Temperature Date/Time
Hatem Bridge US 40 E/B 58 52 41 None Calm 7 mph NE 67 - 67 4/24/2017 3:02:00 PM
I-270 at I-370 53 76 45 Rain Calm Calm NE 60 - 61 4/24/2017 3:00:00 PM
I-270 at MD-109 61 50 42 None Calm 8 mph E 67 - 69 4/24/2017 3:00:00 PM
I-495 at American Legion Bridge 53 98 52 Rain Calm 9 mph NE 57 - 58 4/24/2017 3:00:00 PM
I-68 at MD-219 47 80 42 None 15 mph 25 mph E 53 - 57 4/24/2017 3:00:00 PM
I-68 at Savage Mt - - - No Data Available - - No Data Available -
I-68 at Sideling Hill 58 64 46 None 4 mph 9 mph NE 69 - 70 4/24/2017 3:00:00 PM
I-68 at WV Line 52 62 39 None 11 mph 22 mph E 58 - 60 4/24/2017 3:00:00 PM
I-695 at I-83 58 64 46 Rain 8 mph 13 mph N 61 - 63 4/24/2017 3:00:00 PM
I-70 at Fred-Wash Co. 56 55 40 None Calm 7 mph E 65 - 65 4/24/2017 3:00:00 PM
I-70 at I-695 53 77 46 Rain 5 mph 13 mph E 57 - 65 4/24/2017 3:00:00 PM
I-70 at I-81 60 53 43 None 5 mph 10 mph NE 71 - 71 4/24/2017 3:00:00 PM
I-70 at MD-27 - - - No Data Available - - No Data Available -
I-70 at MD-32 57 58 43 Rain Calm 12 mph E 62 - 66 4/24/2017 3:00:00 PM
I-83 at MD-137 60 50 42 None 5 mph 15 mph NE 72 - 72 4/24/2017 3:00:00 PM
I-95 at I-695 NE 58 53 41 None 7 mph 9 mph E 63 - 68 4/24/2017 3:02:00 PM
I-95 at Patuxent River 52 80 46 None 4 mph 9 mph NE 56 - 57 4/24/2017 3:00:00 PM
I-95 at Tydings Bridge 60 47 40 None 9 mph 15 mph E 69 - 69 4/24/2017 3:00:00 PM
I-95/495 at I-295 55 79 48 Rain Calm 6 mph N 54 - 56 4/24/2017 3:00:00 PM
I-97 at MD-100 54 77 47 Rain 10 mph 18 mph NE 57 - 58 4/24/2017 3:00:00 PM
I-97 at MD-32 54 76 47 Rain 10 mph 14 mph N 57 - 57 4/24/2017 3:00:00 PM
MD 20 at MD 21 57 69 47 None 4 mph 14 mph E 70 - 70 4/24/2017 3:00:00 PM
MD 231 at Patuxent River 55 92 53 Rain 10 mph 16 mph NE 57 - 60 4/24/2017 3:00:00 PM
MD 260 at Cox Rd 56 85 51 None 4 mph 7 mph NE 66 - 66 4/24/2017 3:00:00 PM
MD-135 at Salt Dome 43 100 43 Rain 6 mph 16 mph E 53 - 53 4/24/2017 3:00:00 PM
MD-140 at MD-97 59 48 40 None 8 mph 16 mph E 68 - 68 4/24/2017 3:00:00 PM
MD-200 EB at Bonifant Rd 50 85 46 Rain Calm 6 mph N 56 - 56 4/24/2017 3:02:00 PM
MD-200 WB at Muncaster Mill Rd 51 84 47 Rain 5 mph 13 mph SE 57 - 59 4/24/2017 3:02:00 PM
MD-213 at Sassafras River 59 70 50 None Calm 11 mph E 69 - 69 4/24/2017 3:00:00 PM
MD-24 at Rock St Park 60 48 41 None Calm 9 mph E 69 - 69 4/24/2017 3:00:00 PM
MD-30 at PA Line 57 48 38 None 7 mph 12 mph E 69 - 69 4/24/2017 3:00:00 PM
MD-301 at MD-305 57 69 48 None 11 mph 19 mph E 71 - 72 4/24/2017 3:00:00 PM
MD-33 at Knapps Narrows Drawbridge - - - No Data Available - - No Data Available -
MD-344 at MD-224 52 97 51 Rain Calm 7 mph SW 61 - 61 4/24/2017 3:00:00 PM
MD-4 at Patuxent River 55 93 53 None - - No Data Available 57 - 59 4/24/2017 3:00:00 PM
MD-404 at Choptank River 54 84 49 Rain 7 mph 13 mph E 60 - 64 4/24/2017 3:00:00 PM
MD-43 at MD-150 58 55 42 None 10 mph 18 mph E 66 - 68 4/24/2017 3:00:00 PM
MD-51 at Oldtown Salt Dome 59 55 43 None 5 mph 11 mph E 69 - 69 4/24/2017 3:00:00 PM
MD-64 at MD-418 59 54 42 None 7 mph 13 mph NE 71 - 72 4/24/2017 3:00:00 PM
US-1 at Baltimore / Harford Co. Line 58 46 38 None Calm 8 mph N 69 - 69 4/24/2017 3:00:00 PM
US-1 at Conowingo Dam 62 48 42 None Calm 5 mph SE 72 - 72 4/24/2017 3:00:00 PM
US-13 at US-113 53 90 50 None 7 mph 13 mph E 59 - 59 4/24/2017 3:00:00 PM
US-13 at US-50 - - - No Data Available - - No Data Available -
US-15 at MD-140 58 56 43 None Calm 8 mph NE 67 - 70 4/24/2017 3:00:00 PM
US-301 at MD-5 53 94 51 Rain 7 mph 12 mph N 59 - 60 4/24/2017 3:00:00 PM
US-301 at Potomac 57 90 54 None Calm 15 mph NE 56 - 58 4/24/2017 3:00:00 PM
US-301 on HWN Bridge 53 92 51 None 9 mph 12 mph NE 57 - 57 4/24/2017 3:02:00 PM
US-340 at MD-180 58 54 42 None 4 mph 8 mph E 69 - 70 4/24/2017 3:00:00 PM
US-50 at Choptank 56 87 52 Rain 10 mph 25 mph NE 64 - 67 4/24/2017 3:00:00 PM
US-50 at I-95 54 89 51 Rain 4 mph 7 mph NE 56 - 58 4/24/2017 3:00:00 PM
US-50 at MD-2 56 71 47 None 4 mph 15 mph NW 63 - 64 4/24/2017 3:00:00 PM
US-50 at MD-331 58 79 52 None 10 mph 21 mph E 63 - 65 4/24/2017 3:00:00 PM
US-50 at OC Drawbridge 52 99 52 None 11 mph 21 mph NE 57 - 57 4/24/2017 3:00:00 PM
US-50 at Table Rock Rd 43 100 43 Rain 12 mph 20 mph E 50 - 50 4/24/2017 3:00:00 PM
US-50 Kent Narrow Bridge 59 74 51 None 8 mph 15 mph NE 64 - 67 4/24/2017 3:00:00 PM
WPL Pier 31 55 74 47 Rain 23 mph 24 mph E 62 - 62 4/24/2017 3:02:00 PM
Location Air RH Dwp Precip Type Wind Speed Wind Gust Direction Pavement Temperature Date/Time